• Join FlightAware (Why Join?)
  • Login
  • US Flag 
04:18AM EDT


 

Airport Tracker/Info


-or-


 

Live Flight TrackerFlight Track Log ✈ SWA1802 ✈ 23-Jul-2013 ✈ KMDW - KLAX

Flight Track Log - Related Links

Times and Time Zones

All times are in EDT time to prevent confusion due to time zone crossing. See the SWA1802 flight status page for this flight to view local times or setup timezone preferences in your user account.

Time Position Orientation Groundspeed Altitude Reporting Facility
EDT Latitude Longitude Course Direction KTS MPH feet Rate Location/Type
06:53PM 41.8010 -87.7820 283° West 176 203 2,100  Level FlightAware
06:53PM 41.8010 -87.7890 270° West 196 226 2,300 1,800 Climbing FlightAware
06:53PM 41.7910 -87.8280 251° West 243 280 3,200 2,340 Climbing FlightAware
06:54PM 41.7780 -87.8630 244° Southwest 238 274 4,600 3,240 Climbing FlightAware
06:54PM 41.7620 -87.8990 239° Southwest 240 276 6,200 3,120 Climbing FlightAware
06:55PM 41.7480 -87.9130 217° Southwest 254 292 6,900 1,740 Climbing FlightAware
06:55PM 41.7260 -87.9320 213° Southwest 284 327 7,300 2,220 Climbing FlightAware
06:55PM 41.6980 -87.9650 221° Southwest 278 320 8,700 2,880 Climbing FlightAware
06:56PM 41.6920 -87.9850 248° West 272 313 9,300 2,820 Climbing FlightAware
06:56PM 41.6910 -88.0010 265° West 267 307 9,800 2,820 Climbing FlightAware
06:56PM 41.7070 -88.0460 295° West 263 303 11,300 1,860 Climbing FlightAware
06:57PM 41.7420 -88.0990 312° West 274 315 12,100 780 Climbing FlightAware
06:57PM 41.7450 -88.1260 278° West 293 337 12,100 600 Level FlightAware
06:58PM 41.7380 -88.2060 263° West 342 394 12,700 1,500 Climbing FlightAware
06:59PM 41.7270 -88.2840 259° West 354 407 14,100 2,340 Climbing FlightAware
06:59PM 41.7100 -88.3860 257° West 365 420 16,100 2,460 Climbing FlightAware
07:00PM 41.6970 -88.4640 257° West 373 429 17,400 2,400 Climbing FlightAware
07:01PM 41.6810 -88.5610 258° West 378 435 19,100 2,040 Climbing FlightAware
07:01PM 41.6650 -88.6580 258° West 394 453 20,300 1,800 Climbing FlightAware
07:02PM 41.6490 -88.7580 258° West 399 459 21,700 1,980 Climbing FlightAware
07:03PM 41.6310 -88.8660 257° West 401 461 23,200 1,800 Climbing FlightAware
07:03PM 41.6150 -88.9590 257° West 410 472 24,200 1,500 Climbing FlightAware
07:04PM 41.6000 -89.0740 260° West 416 479 25,300 1,380 Climbing FlightAware
07:05PM 41.5880 -89.1660 260° West 424 488 26,100 1,320 Climbing FlightAware
07:05PM 41.5750 -89.2600 260° West 428 493 27,000 1,680 Climbing FlightAware
07:06PM 41.5590 -89.3760 260° West 420 483 28,400 1,920 Climbing FlightAware
07:07PM 41.5450 -89.4710 259° West 409 471 29,700 1,980 Climbing FlightAware
07:07PM 41.5330 -89.5610 260° West 402 463 30,900 1,500 Climbing FlightAware
07:08PM 41.5180 -89.6620 259° West 400 460 31,700 1,140 Climbing FlightAware
07:09PM 41.5050 -89.7570 260° West 402 463 32,500 1,080 Climbing FlightAware
07:09PM 41.4890 -89.8670 259° West 402 463 33,300 1,080 Climbing FlightAware
07:10PM 41.4730 -89.9780 259° West 402 463 34,100 900 Climbing FlightAware
07:11PM 41.4590 -90.0740 259° West 404 465 34,600 660 Climbing FlightAware
07:11PM 41.4470 -90.1550 259° West 406 467 35,000 720 Climbing FlightAware
07:12PM 41.4300 -90.2710 259° West 405 466 35,700 660 Climbing FlightAware
07:13PM 41.4160 -90.3640 259° West 405 466 36,000 180 Climbing FlightAware
07:14PM 41.3990 -90.4820 259° West 404 465 36,000  Level FlightAware
07:14PM 41.3830 -90.5890 259° West 403 464 36,000  Level FlightAware
07:15PM 41.3670 -90.6940 259° West 401 461 36,000  Level FlightAware
07:16PM 41.3530 -90.7850 258° West 401 461 36,000  Level FlightAware
07:16PM 41.3370 -90.8900 259° West 401 461 36,000  Level FlightAware
07:17PM 41.3210 -90.9910 258° West 402 463 36,000  Level FlightAware
07:18PM 41.3050 -91.0980 259° West 403 464 36,000  Level FlightAware
07:18PM 41.2900 -91.1910 258° West 404 465 36,000  Level FlightAware
07:19PM 41.2760 -91.2840 259° West 404 465 36,000  Level FlightAware
07:20PM 41.2610 -91.3790 258° West 404 465 36,000  Level FlightAware
07:20PM 41.2470 -91.4680 258° West 403 464 36,000  Level FlightAware
07:21PM 41.2310 -91.5680 258° West 403 464 36,000  Level FlightAware
07:22PM 41.2170 -91.6550 258° West 403 464 36,000  Level FlightAware
07:23PM 41.1890 -91.8240 258° West 400 460 36,000  Level FlightAware
07:24PM 41.1700 -91.9460 258° West 399 459 36,000  Level FlightAware
07:24PM 41.1540 -92.0400 257° West 399 459 36,000  Level FlightAware
07:25PM 41.1390 -92.1290 257° West 399 459 36,000  Level FlightAware
07:26PM 41.1200 -92.2490 258° West 396 456 36,000  Level FlightAware
07:27PM 41.0960 -92.3920 257° West 394 453 36,000  Level FlightAware
07:27PM 41.0820 -92.4760 258° West 393 452 36,000  Level FlightAware
07:28PM 41.0660 -92.5690 257° West 392 451 36,000  Level FlightAware
07:29PM 41.0510 -92.6590 258° West 392 451 36,000  Level FlightAware
07:30PM 41.0310 -92.7710 257° West 394 453 36,000  Level FlightAware
07:30PM 41.0150 -92.8650 257° West 393 452 36,000  Level FlightAware
07:31PM 40.9980 -92.9680 258° West 394 453 36,000  Level FlightAware
07:32PM 40.9810 -93.0650 257° West 395 455 36,000  Level FlightAware
07:32PM 40.9640 -93.1630 257° West 397 457 36,000  Level FlightAware
07:33PM 40.9420 -93.2880 257° West 398 458 36,000  Level FlightAware
07:34PM 40.9170 -93.4220 256° West 399 459 36,000  Level FlightAware
07:35PM 40.9010 -93.5160 257° West 400 460 36,000  Level FlightAware
07:36PM 40.8830 -93.6200 257° West 399 459 36,000  Level FlightAware
07:36PM 40.8660 -93.7110 256° West 397 457 36,000  Level FlightAware
07:37PM 40.8480 -93.8070 256° West 397 457 36,000  Level FlightAware
07:38PM 40.8340 -93.8810 256° West 397 457 36,000  Level FlightAware
07:38PM 40.8160 -93.9730 256° West 397 457 36,000  Level FlightAware
07:39PM 40.7940 -94.1080 258° West 390 449 36,000  Level FlightAware
07:40PM 40.7740 -94.2140 256° West 389 448 36,000  Level FlightAware
07:40PM 40.7560 -94.3140 257° West 389 448 36,000  Level FlightAware
07:41PM 40.7410 -94.3910 256° West 389 448 36,000  Level FlightAware
07:42PM 40.7230 -94.4910 257° West 389 448 36,000  Level FlightAware
07:43PM 40.7090 -94.5610 255° West 389 448 36,000  Level FlightAware
07:43PM 40.6840 -94.6950 256° West 396 456 36,000  Level FlightAware
07:44PM 40.6700 -94.7720 257° West 396 456 36,000  Level FlightAware
07:45PM 40.6560 -94.8440 256° West 396 456 36,000  Level FlightAware
07:45PM 40.6300 -94.9790 256° West 401 461 36,000  Level FlightAware
07:46PM 40.6140 -95.0570 255° West 401 461 36,000  Level FlightAware
07:47PM 40.5860 -95.2040 256° West 402 463 36,000  Level FlightAware
07:48PM 40.5710 -95.2760 255° West 402 463 36,000  Level FlightAware
07:48PM 40.5520 -95.3730 256° West 402 463 36,000  Level FlightAware
07:50PM 40.4950 -95.6690 256° West 396 456 36,000  Level FlightAware
07:51PM 40.4750 -95.7670 255° West 395 455 36,000  Level FlightAware
07:52PM 40.4590 -95.8490 256° West 395 455 36,000  Level FlightAware
07:52PM 40.4400 -95.9430 255° West 394 453 36,000  Level FlightAware
07:53PM 40.4380 -95.9490 246° West 394 453 36,000  Level FlightAware
07:54PM 40.3970 -96.1540 255° West 396 456 36,000  Level FlightAware
07:55PM 40.3850 -96.2130 255° West 397 457 36,000  Level FlightAware
07:55PM 40.3540 -96.3620 255° West 399 459 36,000  Level FlightAware
07:56PM 40.3310 -96.4750 255° West 400 460 36,000  Level FlightAware
07:57PM 40.3090 -96.5820 255° West 403 464 36,000  Level FlightAware
07:58PM 40.2860 -96.6890 254° West 405 466 36,000  Level FlightAware
07:58PM 40.2710 -96.7610 255° West 405 466 36,000  Level FlightAware
07:59PM 40.2570 -96.8340 256° West 405 466 36,000  Level FlightAware
08:00PM 40.2160 -97.0240 254° West 405 466 36,000  Level FlightAware
08:01PM 40.1930 -97.1310 254° West 404 465 36,000  Level FlightAware
08:01PM 40.1710 -97.2320 254° West 404 465 36,000  Level FlightAware
08:02PM 40.1550 -97.3040 254° West 404 465 36,000  Level FlightAware
08:03PM 40.1340 -97.4000 254° West 404 465 36,000  Level FlightAware
08:03PM 40.1180 -97.4720 254° West 404 465 36,000  Level FlightAware
08:04PM 40.1020 -97.5440 254° West 404 465 36,000  Level FlightAware
08:05PM 40.0660 -97.7150 255° West 403 464 36,000  Level FlightAware
08:05PM 40.0480 -97.7970 254° West 403 464 36,000  Level FlightAware
08:06PM 40.0320 -97.8680 254° West 403 464 36,000  Level FlightAware
08:07PM 40.0110 -97.9640 254° West 403 464 36,000  Level FlightAware
08:07PM 39.9950 -98.0380 254° West 403 464 36,000  Level FlightAware
08:08PM 39.9740 -98.1330 254° West 403 464 36,000  Level FlightAware
08:09PM 39.9580 -98.2070 254° West 403 464 36,000  Level FlightAware
08:09PM 39.9420 -98.2780 254° West 403 464 36,000  Level FlightAware
08:10PM 39.9210 -98.3730 254° West 403 464 36,000  Level FlightAware
08:11PM 39.9050 -98.4470 254° West 403 464 36,000  Level FlightAware
08:11PM 39.8900 -98.5140 254° West 403 464 36,000  Level FlightAware
08:12PM 39.8690 -98.6100 254° West 403 464 36,000  Level FlightAware
08:13PM 39.8540 -98.6810 255° West 403 464 36,000  Level FlightAware
08:14PM 39.8320 -98.7780 254° West 403 464 36,000  Level FlightAware
08:14PM 39.8160 -98.8520 254° West 403 464 36,000  Level FlightAware
08:15PM 39.7356 -99.1675 254° West 406 467 36,000  Level Minneapolis Center
08:16PM 39.7033 -99.3097 254° West 408 470 36,000  Level Minneapolis Center
08:17PM 39.6700 -99.4506 253° West 408 470 36,000  Level Minneapolis Center
08:18PM 39.6367 -99.5911 253° West 407 468 36,000  Level Minneapolis Center
08:19PM 39.5969 -99.7608 253° West 408 470 36,000  Level Minneapolis Center
08:20PM 39.5700 -99.8736 253° West 409 471 36,000  Level Minneapolis Center
08:21PM 39.5292 -100.0408 252° West 408 470 36,000  Level Minneapolis Center
08:22PM 39.4947 -100.1800 252° West 407 468 36,000  Level Minneapolis Center
08:24PM 39.4439 -100.3839 252° West 400 460 36,000  Level Denver Center
08:25PM 39.4117 -100.5153 252° West 401 461 36,000  Level Denver Center
08:26PM 39.3728 -100.6711 252° West 406 467 36,000  Level Denver Center
08:27PM 39.3400 -100.8017 252° West 402 463 36,000  Level Denver Center
08:28PM 39.3003 -100.9553 252° West 403 464 36,000 300 Level Denver Center
08:29PM 39.2672 -101.0872 252° West 403 464 36,700 780 Climbing Denver Center
08:30PM 39.2283 -101.2436 252° West 408 470 37,700 600 Climbing Denver Center
08:31PM 39.2003 -101.3531 252° West 405 466 38,000 120 Climbing Denver Center
08:32PM 39.1614 -101.5069 252° West 404 465 38,000  Level Denver Center
08:33PM 39.1214 -101.6589 251° West 402 463 38,000  Level Denver Center
08:34PM 39.0861 -101.7911 251° West 401 461 38,000  Level Denver Center
08:35PM 39.0464 -101.9447 252° West 405 466 38,000  Level Denver Center
08:36PM 39.0122 -102.0750 251° West 403 464 38,000  Level Denver Center
08:37PM 38.9714 -102.2258 251° West 402 463 38,000  Level Denver Center
08:38PM 38.9378 -102.3561 252° West 403 464 38,000  Level Denver Center
08:39PM 38.8964 -102.5072 251° West 401 461 38,000  Level Denver Center
08:40PM 38.8622 -102.6353 251° West 398 458 38,000  Level Denver Center
08:41PM 38.8250 -102.7744 251° West 397 457 38,000  Level Denver Center
08:43PM 38.7872 -102.9089 250° West 399 459 38,000  Level Denver Center
08:44PM 38.7497 -103.0461 251° West 407 468 38,000  Level Denver Center
08:50PM 38.5110 -103.9030 251° West 407 468 38,000  Level FlightAware
08:50PM 38.4860 -103.9920 250° West 408 470 38,000  Level FlightAware
08:51PM 38.4610 -104.0790 250° West 408 470 38,000  Level FlightAware
08:52PM 38.4410 -104.1520 251° West 408 470 38,000  Level FlightAware
08:52PM 38.4210 -104.2210 250° West 408 470 38,000  Level FlightAware
08:53PM 38.3730 -104.3840 249° West 411 473 38,000  Level FlightAware
08:54PM 38.3520 -104.4550 249° West 411 473 38,000  Level FlightAware
08:55PM 38.3230 -104.5490 249° West 411 473 38,000  Level FlightAware
08:55PM 38.3090 -104.5950 249° West 411 473 38,000  Level FlightAware
08:56PM 38.2810 -104.6900 249° West 411 473 38,000  Level FlightAware
08:57PM 38.2600 -104.7590 249° West 411 473 38,000  Level FlightAware
08:57PM 38.2320 -104.8510 249° West 411 473 38,000  Level FlightAware
08:58PM 38.2110 -104.9200 249° West 411 473 38,000  Level FlightAware
08:59PM 38.1830 -105.0140 249° West 411 473 38,000  Level FlightAware
08:59PM 38.1620 -105.0830 249° West 411 473 38,000  Level FlightAware
09:00PM 38.1410 -105.1520 249° West 411 473 38,000  Level FlightAware
09:01PM 38.0670 -105.4250 251° West 418 481 38,000  Level FlightAware
09:02PM 38.0260 -105.5610 249° West 417 480 38,000  Level FlightAware
09:03PM 38.0020 -105.6420 249° West 415 478 38,000  Level FlightAware
09:03PM 37.9700 -105.7360 247° West 415 478 38,000  Level FlightAware
09:04PM 37.9280 -105.8200 238° Southwest 413 475 38,000  Level FlightAware
09:05PM 37.8850 -105.9070 238° Southwest 412 474 38,000  Level FlightAware
09:05PM 37.8430 -105.9900 237° Southwest 410 472 38,000  Level FlightAware
09:06PM 37.8150 -106.0780 248° West 408 470 38,000  Level FlightAware
09:07PM 37.7900 -106.1790 253° West 412 474 38,000  Level FlightAware
09:07PM 37.7700 -106.2580 252° West 411 473 38,000  Level FlightAware
09:08PM 37.7460 -106.3510 252° West 412 474 38,000  Level FlightAware
09:09PM 37.7200 -106.4530 252° West 413 475 38,000  Level FlightAware
09:09PM 37.7010 -106.5230 251° West 414 476 38,000  Level FlightAware
09:10PM 37.6740 -106.6300 252° West 416 479 38,000  Level FlightAware
09:11PM 37.6500 -106.7230 252° West 418 481 38,000  Level FlightAware
09:11PM 37.6240 -106.8210 252° West 420 483 38,000  Level FlightAware
09:12PM 37.5980 -106.9190 252° West 423 487 38,000  Level FlightAware
09:13PM 37.5720 -107.0170 252° West 422 486 38,000  Level FlightAware
09:13PM 37.5460 -107.1180 252° West 423 487 38,000  Level FlightAware
09:14PM 37.5200 -107.2150 251° West 424 488 38,000  Level FlightAware
09:15PM 37.4950 -107.3090 251° West 424 488 38,000  Level FlightAware
09:16PM 37.4660 -107.4160 251° West 422 486 38,000  Level FlightAware
09:16PM 37.4410 -107.5090 251° West 423 487 38,000  Level FlightAware
09:17PM 37.4170 -107.5980 251° West 423 487 38,000  Level FlightAware
09:18PM 37.3880 -107.7050 251° West 422 486 38,000  Level FlightAware
09:18PM 37.3660 -107.7860 251° West 421 484 38,000  Level FlightAware
09:19PM 37.3400 -107.8840 252° West 420 483 38,000  Level FlightAware
09:20PM 37.3120 -107.9850 251° West 419 482 38,000  Level FlightAware
09:20PM 37.2860 -108.0780 251° West 417 480 38,000  Level FlightAware
09:21PM 37.2630 -108.1630 251° West 417 480 38,000  Level FlightAware
09:22PM 37.2360 -108.2600 251° West 420 483 38,000  Level FlightAware
09:23PM 37.2050 -108.3710 251° West 419 482 38,000  Level FlightAware
09:23PM 37.1870 -108.4370 251° West 422 486 38,000  Level FlightAware
09:24PM 37.1610 -108.5470 254° West 423 487 38,000  Level FlightAware
09:24PM 37.1570 -108.6310 267° West 424 488 38,000  Level FlightAware
09:25PM 37.1510 -108.7610 267° West 423 487 38,000  Level FlightAware
09:26PM 37.1470 -108.8570 267° West 423 487 38,000  Level FlightAware
09:27PM 37.1430 -108.9770 268° West 424 488 38,000  Level FlightAware
09:27PM 37.1420 -109.0750 269° West 423 487 38,000  Level FlightAware
09:28PM 37.1430 -109.1690 271° West 422 486 38,000  Level FlightAware
09:29PM 37.1520 -109.2710 276° West 425 489 38,000  Level FlightAware
09:30PM 37.1750 -109.3870 284° West 428 493 38,000  Level FlightAware
09:30PM 37.1950 -109.4890 284° West 430 495 38,000  Level FlightAware
09:31PM 37.2110 -109.5740 283° West 430 495 38,000  Level FlightAware
09:32PM 37.2180 -109.6940 274° West 428 493 38,000  Level FlightAware
09:32PM 37.2240 -109.7980 274° West 428 493 38,000  Level FlightAware
09:33PM 37.2290 -109.8960 274° West 428 493 38,000  Level FlightAware
09:34PM 37.2350 -110.0100 274° West 425 489 38,000  Level FlightAware
09:34PM 37.2400 -110.1120 274° West 423 487 38,000  Level FlightAware
09:35PM 37.2450 -110.2100 274° West 420 483 38,000  Level FlightAware
09:36PM 37.2500 -110.3130 274° West 423 487 38,000  Level FlightAware
09:36PM 37.2510 -110.3980 271° West 424 488 38,000  Level FlightAware
09:37PM 37.2510 -110.4730 270° West 424 488 38,000  Level FlightAware
09:38PM 37.2510 -110.5490 270° West 424 488 38,000  Level FlightAware
09:38PM 37.2510 -110.6510 270° West 424 488 38,000  Level FlightAware
09:39PM 37.2510 -110.7230 270° West 424 488 38,000  Level FlightAware
09:39PM 37.2510 -110.7730 270° West 424 488 38,000  Level FlightAware
09:40PM 37.0500 -110.8250 192° South 421 484 38,000  Level FlightAware
09:40PM 37.0320 -110.8750 246° West 423 487 38,000  Level FlightAware
09:41PM 37.0220 -110.9770 263° West 428 493 38,000  Level FlightAware
09:42PM 37.0120 -111.1520 266° West 432 497 38,000  Level FlightAware
09:43PM 37.0020 -111.2690 264° West 433 498 38,000  Level FlightAware
09:43PM 36.9910 -111.3670 262° West 432 497 38,000  Level FlightAware
09:44PM 36.9780 -111.4570 260° West 433 498 38,000  Level FlightAware
09:45PM 36.9620 -111.5530 258° West 433 498 38,000  Level FlightAware
09:45PM 36.9470 -111.6480 259° West 433 498 38,000  Level FlightAware
09:46PM 36.9270 -111.7650 258° West 432 497 38,000  Level FlightAware
09:47PM 36.9130 -111.8520 259° West 431 496 38,000  Level FlightAware
09:47PM 36.8800 -111.9500 247° West 428 493 38,000  Level FlightAware
09:48PM 36.8330 -112.0450 238° Southwest 427 491 38,000  Level FlightAware
09:49PM 36.7930 -112.1220 237° Southwest 429 494 38,000  Level FlightAware
09:50PM 36.7530 -112.2030 238° Southwest 430 495 38,000  Level FlightAware
09:50PM 36.7080 -112.2930 238° Southwest 430 495 38,000  Level FlightAware
09:51PM 36.6680 -112.3720 238° Southwest 431 496 38,000  Level FlightAware
09:52PM 36.6260 -112.4550 238° Southwest 433 498 38,000  Level FlightAware
09:52PM 36.5790 -112.5490 238° Southwest 433 498 38,000  Level FlightAware
09:53PM 36.5370 -112.6320 238° Southwest 431 496 38,000  Level FlightAware
09:54PM 36.4910 -112.7220 238° Southwest 430 495 38,000  Level FlightAware
09:54PM 36.4470 -112.8080 238° Southwest 430 495 38,000  Level FlightAware
09:55PM 36.4030 -112.8950 238° Southwest 429 494 38,000  Level FlightAware
09:56PM 36.3560 -112.9860 237° Southwest 430 495 38,000  Level FlightAware
09:56PM 36.3170 -113.0610 237° Southwest 430 495 38,000  Level FlightAware
09:57PM 36.2750 -113.1430 238° Southwest 430 495 38,000  Level FlightAware
09:58PM 36.2310 -113.2280 237° Southwest 431 496 38,000  Level FlightAware
09:58PM 36.1840 -113.3200 238° Southwest 433 498 38,000  Level FlightAware
09:59PM 36.1390 -113.4060 237° Southwest 431 496 38,000  Level FlightAware
10:00PM 36.0860 -113.5070 237° Southwest 428 493 38,000  Level FlightAware
10:01PM 36.0440 -113.6300 247° West 428 493 38,000  Level FlightAware
10:02PM 36.0160 -113.7170 248° West 428 493 38,000  Level FlightAware
10:02PM 35.9950 -113.7750 246° West 428 493 38,000  Level FlightAware
10:03PM 35.9630 -113.8560 244° Southwest 429 494 38,000  Level FlightAware
10:03PM 35.9230 -113.9500 242° Southwest 427 491 38,000  Level FlightAware
10:04PM 35.8750 -114.0350 235° Southwest 426 490 38,000  Level FlightAware
10:05PM 35.8290 -114.1160 235° Southwest 425 489 38,000  Level FlightAware
10:05PM 35.7800 -114.2040 236° Southwest 427 491 38,000  Level FlightAware
10:06PM 35.7350 -114.2870 236° Southwest 425 489 38,000  Level FlightAware
10:07PM 35.6870 -114.3730 236° Southwest 424 488 38,000  Level FlightAware
10:07PM 35.6410 -114.4560 236° Southwest 426 490 38,000  Level FlightAware
10:08PM 35.5930 -114.5430 236° Southwest 428 493 38,000  Level FlightAware
10:09PM 35.5470 -114.6250 235° Southwest 428 493 38,000  Level FlightAware
10:10PM 35.4980 -114.7120 235° Southwest 430 495 38,000  Level FlightAware
10:10PM 35.4550 -114.7880 235° Southwest 432 497 38,000  Level FlightAware
10:11PM 35.4030 -114.8820 236° Southwest 434 499 38,000  Level FlightAware
10:12PM 35.3590 -114.9590 235° Southwest 434 499 38,000  Level FlightAware
10:12PM 35.3070 -115.0510 235° Southwest 433 498 38,000  Level FlightAware
10:13PM 35.2620 -115.1310 235° Southwest 431 496 38,000 -480 Level FlightAware
10:14PM 35.2120 -115.2190 235° Southwest 426 490 37,400 -840 Descending FlightAware
10:15PM 35.1650 -115.3020 235° Southwest 425 489 36,800 -960 Descending FlightAware
10:15PM 35.1260 -115.3700 235° Southwest 428 493 36,200 -1,080 Descending FlightAware
10:16PM 35.0780 -115.4530 235° Southwest 428 493 35,500 -1,020 Descending FlightAware
10:16PM 35.0340 -115.5300 235° Southwest 423 487 34,900 -1,080 Descending FlightAware
10:17PM 34.9930 -115.6010 235° Southwest 412 474 34,200 -720 Descending FlightAware
10:18PM 34.9370 -115.6990 235° Southwest 408 470 33,800 -1,020 Descending FlightAware
10:19PM 34.8860 -115.7880 235° Southwest 404 465 32,500 -1,500 Descending FlightAware
10:19PM 34.8580 -115.8360 235° Southwest 403 464 32,100 -660 Descending FlightAware
10:20PM 34.8130 -115.9150 235° Southwest 400 460 31,700 -1,080 Descending FlightAware
10:21PM 34.7650 -115.9960 234° Southwest 393 452 30,600 -1,500 Descending FlightAware
10:21PM 34.7160 -116.0800 235° Southwest 384 442 29,500 -1,380 Descending FlightAware
10:22PM 34.6760 -116.1490 235° Southwest 396 456 28,700 -1,260 Descending FlightAware
10:23PM 34.6270 -116.2320 234° Southwest 396 456 27,800 -840 Descending FlightAware
10:23PM 34.5870 -116.3000 234° Southwest 393 452 27,500 -240 Descending FlightAware
10:24PM 34.5540 -116.3550 234° Southwest 393 452 27,500 -1,800 Level FlightAware
10:25PM 34.5060 -116.4390 235° Southwest 410 472 25,300 -2,580 Descending FlightAware
10:25PM 34.4520 -116.5310 235° Southwest 419 482 23,900 -1,680 Descending FlightAware
10:26PM 34.4100 -116.6020 234° Southwest 410 472 22,900 -1,560 Descending FlightAware
10:27PM 34.3620 -116.6820 234° Southwest 409 471 21,800 -1,620 Descending FlightAware
10:28PM 34.3130 -116.7650 234° Southwest 402 463 20,600 -1,500 Descending FlightAware
10:28PM 34.2700 -116.8380 235° Southwest 399 459 19,700 -1,080 Descending FlightAware
10:29PM 34.2320 -116.9010 234° Southwest 399 459 19,300 -600 Descending FlightAware
10:30PM 34.1860 -116.9790 235° Southwest 396 456 19,000 -240 Descending FlightAware
10:30PM 34.1430 -117.0500 234° Southwest 378 435 19,000  Level FlightAware
10:31PM 34.1040 -117.1180 235° Southwest 374 430 19,000 -720 Level FlightAware
10:31PM 34.0740 -117.1840 241° Southwest 370 426 18,100 -1,800 Descending FlightAware
10:32PM 34.0460 -117.2650 247° West 362 417 16,600 -2,460 Descending FlightAware
10:33PM 34.0390 -117.3480 264° West 369 425 14,700 -2,700 Descending FlightAware
10:34PM 34.0300 -117.4380 263° West 370 426 12,900 -1,860 Descending FlightAware
10:34PM 34.0280 -117.5230 268° West 339 390 12,000 -1,320 Descending FlightAware
10:35PM 34.0280 -117.5930 270° West 316 364 11,100 -1,080 Descending FlightAware
10:36PM 34.0250 -117.6690 267° West 284 327 10,500 -1,020 Descending FlightAware
10:36PM 34.0190 -117.7180 262° West 278 320 9,800 -1,380 Descending FlightAware
10:37PM 34.0170 -117.7430 264° West 281 323 9,400 -1,380 Descending FlightAware
10:37PM 34.0130 -117.7860 264° West 279 321 8,800 -1,320 Descending FlightAware
10:37PM 34.0090 -117.8300 264° West 280 322 8,200 -1,320 Descending FlightAware
10:38PM 34.0060 -117.8640 264° West 282 325 7,700 -1,320 Descending FlightAware
10:38PM 34.0020 -117.9020 263° West 281 323 7,200 -1,260 Descending FlightAware
10:39PM 33.9980 -117.9470 264° West 267 307 6,600 -1,140 Descending FlightAware
10:39PM 33.9940 -117.9880 263° West 248 285 6,100 -1,260 Descending FlightAware
10:39PM 33.9920 -118.0020 260° West 242 278 5,800 -1,200 Descending FlightAware
10:40PM 33.9880 -118.0400 263° West 226 260 5,300 -960 Descending FlightAware
10:40PM 33.9850 -118.0730 264° West 212 244 4,900 -1,020 Descending FlightAware
10:41PM 33.9820 -118.1060 264° West 200 230 4,400 -1,020 Descending FlightAware
10:41PM 33.9790 -118.1360 263° West 196 226 4,000 -780 Descending FlightAware
10:42PM 33.9760 -118.1670 263° West 195 224 3,700 -840 Descending FlightAware
10:42PM 33.9740 -118.1840 262° West 198 228 3,400 -900 Descending FlightAware
10:42PM 33.9710 -118.2120 263° West 201 231 3,100 -840 Descending FlightAware
10:43PM 33.9690 -118.2400 265° West 198 228 2,700 -840 Descending FlightAware
10:43PM 33.9660 -118.2640 261° West 185 213 2,400 -900 Descending FlightAware
10:44PM 33.9630 -118.2950 263° West 169 194 1,900 -960 Descending FlightAware
10:44PM 33.9610 -118.3160 263° West 154 177 1,500 -840 Descending FlightAware
10:45PM 33.9590 -118.3370 263° West 154 177 1,200 -780 Descending FlightAware
10:45PM 33.9560 -118.3580 260° West 141 162 900 -840 Descending FlightAware
10:46PM 33.9540 -118.3800 264° West 140 161 500 -660 Descending FlightAware
10:46PM 33.9520 -118.4010 263° West 138 159 200 -300 Descending FlightAware
10:47PM 33.9500 -118.4190 262° West 138 159 200  Level FlightAware
10:54PM 33.9425 -118.4081 259° West  Level Estimated
10:55PM 33.9425 -118.4081 259° West  Level Estimated